createdAt,value
2023-03-22T00:02:55.585Z,498.00
2023-03-22T00:06:55.646Z,504.00
2023-03-22T00:10:55.691Z,499.00
2023-03-22T00:14:55.792Z,493.00
2023-03-22T00:18:55.870Z,497.00
2023-03-22T00:22:55.955Z,501.00
2023-03-22T00:26:56.017Z,504.00
2023-03-22T00:30:56.122Z,505.00
2023-03-22T00:34:56.160Z,500.00
2023-03-22T00:38:56.248Z,497.00
2023-03-22T00:42:56.325Z,498.00
2023-03-22T00:46:56.413Z,495.00
2023-03-22T00:50:56.484Z,494.00
2023-03-22T00:54:56.544Z,496.00
2023-03-22T00:58:56.699Z,498.00
2023-03-22T01:02:56.774Z,501.00
2023-03-22T01:06:57.283Z,499.00
2023-03-22T01:10:56.934Z,500.00
2023-03-22T01:14:57.000Z,497.00
2023-03-22T01:18:57.088Z,496.00
2023-03-22T01:22:57.220Z,502.00
2023-03-22T01:26:57.315Z,504.00
2023-03-22T01:30:57.362Z,497.00
2023-03-22T01:34:57.419Z,496.00
2023-03-22T01:38:57.533Z,499.00
2023-03-22T01:42:57.810Z,497.00
2023-03-22T01:46:57.697Z,493.00
2023-03-22T01:50:57.774Z,497.00
2023-03-22T01:54:57.871Z,499.00
2023-03-22T01:58:57.913Z,502.00
2023-03-22T02:02:58.091Z,499.00
2023-03-22T02:06:58.083Z,497.00
2023-03-22T02:10:58.182Z,493.00
2023-03-22T02:14:58.257Z,495.00
2023-03-22T02:18:58.404Z,494.00
2023-03-22T02:22:58.414Z,492.00
2023-03-22T02:26:58.496Z,498.00
2023-03-22T02:30:58.621Z,498.00
2023-03-22T02:34:58.685Z,499.00
2023-03-22T02:38:58.749Z,501.00
2023-03-22T02:42:58.820Z,498.00
2023-03-22T02:46:59.370Z,501.00
2023-03-22T02:50:58.935Z,500.00
2023-03-22T02:54:59.048Z,499.00
2023-03-22T02:58:59.068Z,497.00
2023-03-22T03:02:59.158Z,497.00
2023-03-22T03:06:59.234Z,499.00
2023-03-22T03:10:59.365Z,501.00
2023-03-22T03:14:59.458Z,495.00
2023-03-22T03:18:59.545Z,496.00
2023-03-22T03:22:59.585Z,494.00
2023-03-22T03:26:59.640Z,498.00
2023-03-22T03:30:59.728Z,491.00
2023-03-22T03:34:59.821Z,487.00
2023-03-22T03:38:59.882Z,493.00
2023-03-22T03:42:59.950Z,495.00
2023-03-22T03:47:00.031Z,493.00
2023-03-22T03:51:00.174Z,493.00
2023-03-22T03:55:00.217Z,493.00
2023-03-22T03:59:00.324Z,493.00
2023-03-22T04:03:00.403Z,491.00
2023-03-22T04:07:00.497Z,490.00
2023-03-22T04:11:00.412Z,494.00
2023-03-22T04:15:00.396Z,493.00
2023-03-22T04:19:00.351Z,494.00
2023-03-22T04:23:00.352Z,496.00
2023-03-22T04:27:00.277Z,496.00
2023-03-22T04:31:00.303Z,497.00
2023-03-22T04:35:00.184Z,495.00
2023-03-22T04:39:00.150Z,497.00
2023-03-22T04:43:00.119Z,496.00
2023-03-22T04:47:00.103Z,501.00
2023-03-22T04:51:00.091Z,500.00
2023-03-22T04:55:00.024Z,501.00
2023-03-22T04:58:59.997Z,502.00
2023-03-22T05:03:00.004Z,496.00
2023-03-22T05:06:59.895Z,498.00
2023-03-22T05:10:59.881Z,494.00
2023-03-22T05:14:59.861Z,501.00
2023-03-22T05:18:59.804Z,502.00
2023-03-22T05:22:59.765Z,503.00
2023-03-22T05:26:59.769Z,504.00
2023-03-22T05:30:59.842Z,503.00
2023-03-22T05:34:59.923Z,503.00
2023-03-22T05:39:00.183Z,504.00
2023-03-22T05:43:00.001Z,500.00
2023-03-22T05:47:00.027Z,507.00
2023-03-22T05:50:59.940Z,508.00
2023-03-22T05:54:59.899Z,504.00
2023-03-22T05:58:59.898Z,500.00
2023-03-22T06:02:59.871Z,495.00
2023-03-22T06:06:59.784Z,495.00
2023-03-22T06:10:59.795Z,499.00
2023-03-22T06:14:59.705Z,501.00
2023-03-22T06:18:59.709Z,500.00
2023-03-22T06:22:59.660Z,498.00
2023-03-22T06:26:59.919Z,505.00
2023-03-22T06:30:59.638Z,659.00
2023-03-22T06:34:59.900Z,858.00
2023-03-22T06:38:59.893Z,900.00
2023-03-22T06:43:02.921Z,929.00
2023-03-22T06:47:00.470Z,957.00
2023-03-22T06:50:59.397Z,1008.00
2023-03-22T06:54:59.379Z,998.00
2023-03-22T06:58:59.357Z,963.00
2023-03-22T07:02:59.445Z,935.00
2023-03-22T07:06:59.530Z,915.00
2023-03-22T07:10:59.577Z,910.00
2023-03-22T07:14:59.604Z,933.00
2023-03-22T07:18:59.720Z,975.00
2023-03-22T07:22:59.768Z,977.00
2023-03-22T07:26:59.793Z,992.00
2023-03-22T07:30:59.822Z,935.00
2023-03-22T07:34:59.859Z,950.00
2023-03-22T07:38:59.936Z,1001.00
2023-03-22T07:42:59.963Z,1121.00
2023-03-22T07:47:00.056Z,1154.00
2023-03-22T07:51:00.104Z,1152.00
2023-03-22T07:55:00.290Z,1132.00
2023-03-22T07:59:00.504Z,1133.00
2023-03-22T08:03:00.663Z,1122.00
2023-03-22T08:07:00.824Z,1120.00
2023-03-22T08:11:00.778Z,1118.00
2023-03-22T08:15:00.788Z,1122.00
2023-03-22T08:19:00.717Z,1060.00
2023-03-22T08:23:00.704Z,1099.00
2023-03-22T08:27:00.984Z,1076.00
2023-03-22T08:31:00.952Z,808.00
2023-03-22T08:35:00.603Z,688.00
2023-03-22T08:39:00.503Z,655.00
2023-03-22T08:43:00.962Z,576.00
2023-03-22T08:47:02.217Z,586.00
2023-03-22T08:51:00.409Z,598.00
2023-03-22T08:55:00.529Z,590.00
2023-03-22T08:59:00.626Z,580.00
2023-03-22T09:03:00.974Z,592.00
2023-03-22T09:07:00.936Z,568.00
2023-03-22T09:11:01.001Z,565.00
2023-03-22T09:15:01.157Z,617.00
2023-03-22T09:19:01.255Z,757.00
2023-03-22T09:23:01.505Z,729.00
2023-03-22T09:27:01.508Z,704.00
2023-03-22T09:31:01.681Z,655.00
2023-03-22T09:35:01.670Z,622.00
2023-03-22T09:39:01.955Z,587.00
2023-03-22T09:43:02.014Z,676.00
2023-03-22T09:47:02.050Z,748.00
2023-03-22T09:51:02.123Z,822.00
2023-03-22T09:55:02.134Z,861.00
2023-03-22T09:59:02.274Z,891.00
2023-03-22T10:03:02.233Z,895.00
2023-03-22T10:07:02.209Z,907.00
2023-03-22T10:11:02.182Z,910.00
2023-03-22T10:15:02.145Z,926.00
2023-03-22T10:19:02.083Z,943.00
2023-03-22T10:23:02.118Z,950.00
2023-03-22T10:27:02.543Z,988.00
2023-03-22T10:31:04.377Z,1077.00
2023-03-22T10:35:01.935Z,1102.00
2023-03-22T10:39:01.995Z,1124.00
2023-03-22T10:43:01.882Z,1135.00
2023-03-22T10:47:02.067Z,1127.00
2023-03-22T10:51:01.773Z,1115.00
2023-03-22T10:55:04.431Z,1113.00
2023-03-22T10:59:01.996Z,1117.00
2023-03-22T11:03:01.754Z,1117.00
2023-03-22T11:07:02.060Z,908.00
2023-03-22T11:11:01.603Z,839.00
2023-03-22T11:15:01.549Z,820.00
2023-03-22T11:19:01.527Z,853.00
2023-03-22T11:23:01.509Z,980.00
2023-03-22T11:27:01.485Z,849.00
2023-03-22T11:31:01.436Z,836.00
2023-03-22T11:35:01.489Z,823.00
2023-03-22T11:39:01.718Z,705.00
2023-03-22T11:43:02.542Z,661.00
2023-03-22T11:47:02.003Z,565.00
2023-03-22T11:51:02.081Z,525.00
2023-03-22T11:55:02.057Z,503.00
2023-03-22T11:59:02.108Z,486.00
2023-03-22T12:03:02.252Z,477.00
2023-03-22T12:07:02.252Z,476.00
2023-03-22T12:11:02.572Z,473.00
2023-03-22T12:15:02.578Z,478.00
2023-03-22T12:19:02.565Z,504.00
2023-03-22T12:23:02.563Z,525.00
2023-03-22T12:27:02.607Z,527.00
2023-03-22T12:31:02.806Z,529.00
2023-03-22T12:35:16.518Z,532.00
2023-03-22T12:39:03.686Z,523.00
2023-03-22T12:43:02.614Z,535.00
2023-03-22T12:47:02.604Z,536.00
2023-03-22T12:51:02.564Z,540.00
2023-03-22T12:55:02.572Z,549.00
2023-03-22T12:59:02.511Z,558.00
2023-03-22T13:03:02.550Z,553.00
2023-03-22T13:07:02.408Z,547.00
2023-03-22T13:11:02.578Z,549.00
2023-03-22T13:15:02.582Z,545.00
2023-03-22T13:19:02.304Z,544.00
2023-03-22T13:23:02.263Z,546.00
2023-03-22T13:27:02.209Z,547.00
2023-03-22T13:31:02.194Z,539.00
2023-03-22T13:35:02.174Z,538.00
2023-03-22T13:39:02.126Z,548.00
2023-03-22T13:43:02.120Z,546.00
2023-03-22T13:47:02.053Z,540.00
2023-03-22T13:51:02.023Z,539.00
2023-03-22T13:55:01.985Z,531.00
2023-03-22T13:59:02.043Z,530.00
2023-03-22T14:03:02.320Z,525.00
2023-03-22T14:07:02.490Z,522.00
2023-03-22T14:11:02.304Z,528.00
2023-03-22T14:15:02.336Z,524.00
2023-03-22T14:19:02.255Z,529.00
2023-03-22T14:48:03.467Z,526.00
2023-03-22T14:52:04.404Z,527.00
2023-03-22T14:56:03.624Z,523.00
2023-03-22T15:00:03.612Z,528.00
2023-03-22T15:04:04.643Z,523.00
2023-03-22T15:08:03.635Z,519.00
2023-03-22T15:12:03.244Z,518.00
2023-03-22T15:16:03.246Z,511.00
2023-03-22T15:20:03.149Z,506.00
2023-03-22T15:24:03.165Z,511.00
2023-03-22T15:28:03.109Z,509.00
2023-03-22T15:32:03.048Z,513.00
2023-03-22T15:36:03.049Z,508.00
2023-03-22T15:40:03.018Z,515.00
2023-03-22T15:44:02.971Z,515.00
2023-03-22T15:48:02.905Z,519.00
2023-03-22T15:52:02.981Z,515.00
2023-03-22T15:56:03.061Z,515.00
2023-03-22T16:00:03.096Z,520.00
2023-03-22T16:04:03.178Z,515.00
2023-03-22T16:08:03.164Z,514.00
2023-03-22T16:12:03.319Z,516.00
2023-03-22T16:16:03.359Z,518.00
2023-03-22T16:20:03.466Z,518.00
2023-03-22T16:24:03.521Z,513.00
2023-03-22T16:28:03.646Z,511.00
2023-03-22T16:32:03.793Z,509.00
2023-03-22T16:36:03.935Z,508.00
2023-03-22T16:40:04.016Z,512.00
2023-03-22T16:44:04.119Z,507.00
2023-03-22T16:48:04.165Z,506.00
2023-03-22T16:52:04.340Z,505.00
2023-03-22T16:56:04.475Z,499.00
2023-03-22T17:00:04.909Z,504.00
2023-03-22T17:04:04.738Z,500.00
2023-03-22T17:08:04.856Z,498.00
2023-03-22T17:12:04.966Z,498.00
2023-03-22T17:16:05.121Z,496.00
2023-03-22T17:20:05.256Z,504.00
2023-03-22T17:24:05.430Z,494.00
2023-03-22T17:28:05.701Z,493.00
2023-03-22T17:36:05.751Z,489.00
2023-03-22T17:44:05.697Z,497.00
2023-03-22T17:48:05.702Z,502.00
2023-03-22T17:52:05.784Z,502.00
2023-03-22T17:56:42.284Z,495.00
2023-03-22T18:00:06.511Z,495.00
2023-03-22T18:04:05.508Z,497.00
2023-03-22T18:08:26.381Z,496.00
2023-03-22T18:12:06.508Z,495.00
2023-03-22T18:16:05.497Z,494.00
2023-03-22T18:20:14.845Z,492.00
2023-03-22T18:24:06.547Z,494.00
2023-03-22T18:28:05.488Z,496.00
2023-03-22T18:32:17.248Z,497.00
2023-03-22T18:36:06.552Z,499.00
2023-03-22T18:44:06.501Z,502.00
2023-03-22T18:48:05.448Z,503.00
2023-03-22T18:56:06.880Z,504.00
2023-03-22T19:00:05.740Z,505.00
2023-03-22T19:04:05.414Z,497.00
2023-03-22T19:12:06.743Z,496.00
2023-03-22T19:16:05.733Z,499.00
2023-03-22T19:20:05.741Z,501.00
2023-03-22T19:24:06.261Z,503.00
2023-03-22T19:28:06.777Z,496.00
2023-03-22T19:32:06.752Z,496.00
2023-03-22T19:36:06.732Z,497.00
2023-03-22T19:41:13.912Z,498.00
2023-03-22T19:44:07.768Z,499.00
2023-03-22T19:48:06.690Z,501.00
2023-03-22T19:52:06.887Z,502.00
2023-03-22T19:56:07.069Z,496.00
2023-03-22T20:00:43.786Z,496.00
2023-03-22T20:04:08.221Z,502.00
2023-03-22T20:08:07.622Z,501.00
2023-03-22T20:12:07.361Z,496.00
2023-03-22T20:16:07.286Z,498.00
2023-03-22T20:20:07.292Z,501.00
2023-03-22T20:24:07.227Z,498.00
2023-03-22T20:28:07.212Z,501.00
2023-03-22T20:32:07.184Z,502.00
2023-03-22T20:36:07.152Z,496.00
2023-03-22T20:40:07.133Z,493.00
2023-03-22T20:44:07.043Z,494.00
2023-03-22T20:48:07.015Z,501.00
2023-03-22T20:52:07.012Z,493.00
2023-03-22T20:56:06.965Z,494.00
2023-03-22T21:00:07.116Z,499.00
2023-03-22T21:04:07.322Z,501.00
2023-03-22T21:08:07.520Z,500.00
2023-03-22T21:12:07.697Z,499.00
2023-03-22T21:16:07.910Z,495.00
2023-03-22T21:20:08.068Z,499.00
2023-03-22T21:24:08.269Z,497.00
2023-03-22T21:28:08.454Z,499.00
2023-03-22T21:32:08.676Z,496.00
2023-03-22T21:36:08.886Z,497.00
2023-03-22T21:40:09.052Z,498.00
2023-03-22T21:44:09.278Z,494.00
2023-03-22T21:48:09.444Z,493.00
2023-03-22T21:52:09.669Z,491.00
2023-03-22T21:56:09.828Z,487.00
2023-03-22T22:00:10.041Z,491.00
2023-03-22T22:04:10.204Z,496.00
2023-03-22T22:08:10.426Z,500.00
2023-03-22T22:12:10.669Z,493.00
2023-03-22T22:16:10.843Z,492.00
2023-03-22T22:20:11.049Z,494.00
2023-03-22T22:24:11.237Z,500.00
2023-03-22T22:28:11.454Z,502.00
2023-03-22T22:32:11.389Z,504.00
2023-03-22T22:36:11.376Z,497.00
2023-03-22T22:40:11.350Z,500.00
2023-03-22T22:44:11.290Z,496.00
2023-03-22T22:48:11.285Z,500.00
2023-03-22T22:52:11.232Z,499.00
2023-03-22T22:56:11.184Z,496.00
2023-03-22T23:00:11.142Z,495.00
2023-03-22T23:04:11.118Z,495.00
2023-03-22T23:08:11.106Z,495.00
2023-03-22T23:12:11.194Z,493.00
2023-03-22T23:16:11.383Z,497.00
2023-03-22T23:20:11.628Z,496.00
2023-03-22T23:24:12.352Z,499.00
2023-03-22T23:28:11.558Z,501.00
2023-03-22T23:32:11.545Z,501.00
2023-03-22T23:36:11.487Z,500.00
2023-03-22T23:40:11.453Z,504.00
2023-03-22T23:44:11.433Z,502.00
2023-03-22T23:48:11.389Z,502.00
2023-03-22T23:52:11.431Z,508.00
2023-03-22T23:56:11.668Z,503.00
